This is the latest recevied weather packets stored in our database for station/object YN3ZBQ-13. If no packets are shown the sender has not sent any weather packets the latest 10 day(s).
| Time | Temp. | Humidity | Pressure | Rain* | Wind** | Luminosity | Snow |
|---|---|---|---|---|---|---|---|
| 1778174776 | 32.22° C | 43% | 1011 hPa | 0 mm | - | - | - |
| 1778174176 | 32.78° C | 43% | 1011 hPa | 0 mm | - | - | - |
| 1778173576 | 31.11° C | 44% | 1011 hPa | 0 mm | - | - | - |
| 1778172976 | 31.67° C | 44% | 1011 hPa | 0 mm | - | - | - |
| 1778172375 | 32.22° C | 44% | 1011 hPa | 0 mm | - | - | - |
| 1778171775 | 32.78° C | 44% | 1011 hPa | 0 mm | - | - | - |
| 1778171174 | 30.56° C | 48% | 1012 hPa | 0 mm | - | - | - |
| 1778170574 | 31.11° C | 48% | 1012 hPa | 0 mm | - | - | - |
| 1778169974 | 31.67° C | 48% | 1012 hPa | 0 mm | - | - | - |
| 1778169373 | 30.56° C | 50% | 1012 hPa | 0 mm | - | - | - |
| 1778168773 | 31.11° C | 50% | 1012 hPa | 0 mm | - | - | - |
| 1778168173 | 29.44° C | 55% | 1012 hPa | 0 mm | - | - | - |
| 1778167572 | 30° C | 55% | 1012 hPa | 0 mm | - | - | - |
| 1778166972 | 29.44° C | 55% | 1012 hPa | 0 mm | - | - | - |
| 1778166372 | 29.44° C | 55% | 1012 hPa | 0 mm | - | - | - |
| 1778165171 | 30° C | 55% | 1012 hPa | 0 mm | - | - | - |
| 1778164571 | 27.78° C | 60% | 1012 hPa | 0 mm | - | - | - |
| 1778163970 | 28.33° C | 60% | 1012 hPa | 0 mm | - | - | - |
| 1778163370 | 27.22° C | 60% | 1012 hPa | 0 mm | - | - | - |
| 1778162769 | 27.78° C | 60% | 1012 hPa | 0 mm | - | - | - |
| 1778162169 | 28.33° C | 60% | 1012 hPa | 0 mm | - | - | - |
| 1778161569 | 27.22° C | 63% | 1011 hPa | 0 mm | - | - | - |
| 1778160968 | 27.78° C | 63% | 1011 hPa | 0 mm | - | - | - |
| 1778160368 | 25.56° C | 69% | 1011 hPa | 0 mm | - | - | - |
| 1778159768 | 25.56° C | 69% | 1011 hPa | 0 mm | - | - | - |
* Rain latest hour (hover to see other rain measurements)
** Current wind speed in m/s (hover to see current wind gust speed)